East Texas Regional Airport Longview US
ICAO: KGGG
IATA: GGG
Category: Medium
Scheduled Services: Yes

Elevation: 365 ft
TransAlt. 18000 ft.

Airport Communications:
LONGVIEW APP/DEP:118.25
ATIS:119.65
CTAF:119.2
GND:121.6
TWR:119.2
UNICOM:122.95

KGGG Zoom In..

Runways:

(A) RW 13 length 10000 ft width 150 ft
ILS 109.50 / hdg 131

(B) RW 18 length 6109 ft width 150 ft
---- / hdg 176

(C) RW 31 length 10000 ft width 150 ft
---- / hdg 311

(D) RW 36 length 6109 ft width 150 ft
---- / hdg 356

Location; KGGG
Day. 19 / Time. 02.53 Zulu
* Altimeter: 29.88
* Temperature: 32° c. 89.6°f.
* Wind from: 170° Speed 09 kn.
Dewpoint: 22° c.
Visibility: 10 Statute Miles.
Clouds: Clear (automated report).

KGGG 190253Z AUTO 17009KT 10SM CLR 32/22 A2988 RMK AO2 SLP110 T03170222 51004


Wind From 170°
Speed 09 kn.

 
 
jpsmedia.com for Web Design worldairports.se 2018   terms of use